createdAt,value
2022-12-03T03:20:31.817Z,99012.88
2022-12-03T03:25:33.571Z,99012.91
2022-12-03T03:30:38.839Z,99018.19
2022-12-03T03:35:41.114Z,99021.56
2022-12-03T03:40:43.539Z,99023.34
2022-12-03T03:45:45.401Z,99023.31
2022-12-03T03:50:47.443Z,99023.41
2022-12-03T03:55:49.966Z,99017.22
2022-12-03T04:00:52.160Z,99021.53
2022-12-03T04:05:53.959Z,99022.47
2022-12-03T04:11:14.477Z,99008.53
2022-12-03T04:16:16.324Z,99013.69
2022-12-03T04:21:39.905Z,99015.47
2022-12-03T04:27:00.320Z,99023.44
2022-12-03T04:32:20.774Z,99022.44
2022-12-03T04:37:22.512Z,99022.47
2022-12-03T04:42:24.150Z,99011.09
2022-12-03T04:47:25.890Z,99006.69
2022-12-03T04:52:27.495Z,99007.63
2022-12-03T04:57:29.160Z,99016.31
2022-12-03T05:02:30.890Z,99022.44
2022-12-03T05:07:32.675Z,99020.91
2022-12-03T05:12:34.406Z,99022.47
2022-12-03T05:17:36.056Z,99022.50
2022-12-03T05:22:37.973Z,99018.94
2022-12-03T05:27:39.736Z,99015.47
2022-12-03T05:32:41.408Z,99015.56
2022-12-03T05:37:43.371Z,99024.25
2022-12-03T05:42:53.970Z,99019.00
2022-12-03T05:47:57.909Z,99008.44
2022-12-03T05:52:59.764Z,99010.22
2022-12-03T05:58:01.391Z,99019.00
2022-12-03T06:03:03.115Z,99019.88
2022-12-03T06:08:05.122Z,99012.81
2022-12-03T06:13:06.789Z,99018.06
2022-12-03T06:18:08.458Z,99013.69
2022-12-03T06:23:10.286Z,99007.59
2022-12-03T06:28:11.999Z,99017.28
2022-12-03T06:33:13.630Z,99028.75
2022-12-03T06:38:15.298Z,99026.91
2022-12-03T06:43:16.939Z,99032.88
2022-12-03T06:48:18.603Z,99026.84
2022-12-03T06:53:20.405Z,99038.19
2022-12-03T06:58:22.201Z,99046.03
2022-12-03T07:03:24.017Z,99046.03
2022-12-03T07:08:26.138Z,99039.03
2022-12-03T07:13:27.796Z,99037.28
2022-12-03T07:18:29.412Z,99030.25
2022-12-03T07:23:31.224Z,99039.88
2022-12-03T07:28:32.950Z,99048.75
2022-12-03T07:33:34.882Z,99049.63
2022-12-03T07:38:37.126Z,99047.75
2022-12-03T07:43:38.776Z,99052.97
2022-12-03T07:48:40.587Z,99054.69
2022-12-03T07:53:42.366Z,99051.16
2022-12-03T07:58:44.252Z,99043.41
2022-12-03T08:03:46.098Z,99041.59
2022-12-03T08:08:47.835Z,99050.22
2022-12-03T08:13:49.591Z,99049.47
2022-12-03T08:18:54.414Z,99052.91
2022-12-03T08:23:57.142Z,99066.84
2022-12-03T08:28:59.130Z,99060.81
2022-12-03T08:34:22.422Z,99059.84
2022-12-03T08:39:33.311Z,99056.25
2022-12-03T08:44:41.045Z,99056.31
2022-12-03T08:49:51.957Z,99061.50
2022-12-03T08:54:56.106Z,99060.53
2022-12-03T09:00:24.764Z,99056.25
2022-12-03T09:05:32.533Z,99050.13
2022-12-03T09:10:34.189Z,99050.22
2022-12-03T09:15:35.847Z,99061.44
2022-12-03T09:20:37.642Z,99062.31
2022-12-03T09:25:39.362Z,99061.41
2022-12-03T09:30:41.081Z,99058.78
2022-12-03T09:35:42.760Z,99058.78
2022-12-03T09:40:44.608Z,99057.88
2022-12-03T09:45:47.784Z,99054.41
2022-12-03T09:50:50.872Z,99038.63
2022-12-03T09:55:53.169Z,99034.25
2022-12-03T10:00:55.645Z,99026.50
2022-12-03T10:05:58.079Z,99034.28
2022-12-03T10:11:00.234Z,99036.81
2022-12-03T10:16:02.184Z,99035.31
2022-12-03T10:21:04.010Z,99016.84
2022-12-03T10:26:05.850Z,99014.97
2022-12-03T10:31:10.975Z,99012.44
2022-12-03T10:36:24.607Z,99006.16
2022-12-03T10:41:28.256Z,99005.31
2022-12-03T10:46:30.120Z,98994.09
2022-12-03T10:51:32.124Z,98994.00
2022-12-03T10:56:33.905Z,98996.63
2022-12-03T11:01:35.652Z,98978.44
2022-12-03T11:06:37.428Z,98978.25
2022-12-03T11:11:39.540Z,98968.66
2022-12-03T11:16:41.340Z,98963.38
2022-12-03T11:22:05.015Z,98960.78
2022-12-03T11:27:17.152Z,98959.91
2022-12-03T11:32:43.501Z,98966.94
2022-12-03T11:37:45.179Z,98960.75
2022-12-03T11:42:48.073Z,98955.44
2022-12-03T11:47:58.916Z,98949.38
2022-12-03T11:53:14.497Z,98944.19
2022-12-03T11:58:18.700Z,98959.00
2022-12-03T12:03:33.174Z,98966.84
2022-12-03T12:08:38.459Z,98955.50
2022-12-03T12:13:40.279Z,98944.09
2022-12-03T12:18:53.725Z,98940.59
2022-12-03T12:23:56.872Z,98934.41
2022-12-03T12:28:58.564Z,98926.59
2022-12-03T12:34:00.414Z,98925.63
2022-12-03T12:39:02.213Z,98923.03
2022-12-03T12:44:10.223Z,98924.81
2022-12-03T12:49:13.720Z,98932.66
2022-12-03T12:54:20.692Z,98927.34
2022-12-03T12:59:24.505Z,98914.31
2022-12-03T13:04:30.273Z,98916.09
2022-12-03T13:09:33.175Z,98909.09
2022-12-03T13:14:37.016Z,98898.56
2022-12-03T13:19:47.575Z,98893.31
2022-12-03T13:24:54.077Z,98895.03
2022-12-03T13:30:08.615Z,98904.63
2022-12-03T13:35:10.247Z,98900.28
2022-12-03T13:40:26.907Z,98888.88
2022-12-03T13:45:34.229Z,98885.38
2022-12-03T13:50:46.204Z,98903.69
2022-12-03T13:55:51.613Z,98905.59
2022-12-03T14:00:53.228Z,98914.19
2022-12-03T14:05:54.881Z,98915.97
2022-12-03T14:11:00.348Z,98919.44
2022-12-03T14:16:02.518Z,98908.16
2022-12-03T14:21:04.182Z,98922.13
2022-12-03T14:26:05.962Z,98915.16
2022-12-03T14:31:07.707Z,98919.53
2022-12-03T14:36:09.567Z,98918.63
2022-12-03T14:41:31.382Z,98916.91
2022-12-03T14:46:33.058Z,98924.75
2022-12-03T14:51:34.718Z,98922.97
2022-12-03T14:56:36.578Z,98924.69
2022-12-03T15:01:38.399Z,98929.16
2022-12-03T15:06:40.516Z,98930.84
2022-12-03T15:11:46.178Z,98923.00
2022-12-03T15:16:48.555Z,98932.59
2022-12-03T15:21:50.281Z,98932.63
2022-12-03T15:26:53.609Z,98938.69
2022-12-03T15:31:56.082Z,98932.59
2022-12-03T15:36:58.060Z,98933.50
2022-12-03T15:41:59.811Z,98935.25
2022-12-03T15:47:01.688Z,98941.34
2022-12-03T15:52:04.670Z,98946.69
2022-12-03T15:57:07.319Z,98946.63
2022-12-03T16:02:10.273Z,98943.13
2022-12-03T16:07:14.551Z,98936.97
2022-12-03T16:12:16.204Z,98944.81
2022-12-03T16:17:18.491Z,98938.75
2022-12-03T16:22:20.258Z,98929.09
2022-12-03T16:27:25.704Z,98931.72
2022-12-03T16:32:27.925Z,98936.09
2022-12-03T16:37:30.084Z,98935.25
2022-12-03T16:42:32.161Z,98938.81
2022-12-03T16:47:34.792Z,98938.72
2022-12-03T16:52:37.057Z,98936.09
2022-12-03T16:57:39.251Z,98936.97
2022-12-03T17:02:41.195Z,98929.94
2022-12-03T17:07:43.569Z,98943.13
2022-12-03T17:13:08.866Z,98937.94
2022-12-03T17:18:07.563Z,98949.34
2022-12-03T17:23:09.243Z,98951.94
2022-12-03T17:28:11.134Z,98952.69
2022-12-03T17:33:12.896Z,98950.88
2022-12-03T17:38:15.194Z,98958.03
2022-12-03T17:43:17.254Z,98959.66
2022-12-03T17:48:19.106Z,98954.41
2022-12-03T17:53:20.851Z,98957.03
2022-12-03T17:58:22.843Z,98958.81
2022-12-03T18:03:24.992Z,98969.31
2022-12-03T18:08:27.535Z,98955.22
2022-12-03T18:13:29.580Z,98961.31
2022-12-03T18:18:31.278Z,98959.59
2022-12-03T18:23:33.832Z,98957.78
2022-12-03T18:28:35.829Z,98957.84
2022-12-03T18:33:38.062Z,98958.72
2022-12-03T18:38:40.428Z,98958.72
2022-12-03T18:43:43.235Z,98956.09
2022-12-03T18:48:48.763Z,98954.34
2022-12-03T18:53:52.140Z,98956.09
2022-12-03T18:58:54.590Z,98955.28
2022-12-03T19:03:56.508Z,98951.00
2022-12-03T19:09:00.072Z,98949.31
2022-12-03T19:14:05.456Z,98954.34
2022-12-03T19:19:09.773Z,98952.66
2022-12-03T19:24:24.253Z,98952.63
2022-12-03T19:29:27.856Z,98956.97
2022-12-03T19:34:30.030Z,98959.59
2022-12-03T19:39:33.706Z,98969.09
2022-12-03T19:44:36.377Z,98970.91
2022-12-03T19:49:38.462Z,98970.97
2022-12-03T19:54:42.109Z,98970.91
2022-12-03T19:59:44.401Z,98970.91
2022-12-03T20:04:47.081Z,98975.28
2022-12-03T20:09:52.113Z,98970.94
2022-12-03T20:14:54.656Z,98965.66
2022-12-03T20:19:58.284Z,98969.22
2022-12-03T20:25:00.496Z,98970.91
2022-12-03T20:30:02.250Z,98969.09
2022-12-03T20:35:04.895Z,98970.91
2022-12-03T20:40:11.519Z,98978.81
2022-12-03T20:45:15.537Z,98972.66
2022-12-03T20:50:19.835Z,98963.91
2022-12-03T20:55:22.467Z,98951.72
2022-12-03T21:00:25.284Z,98952.56
2022-12-03T21:05:27.685Z,98949.94
2022-12-03T21:10:44.975Z,98955.19
2022-12-03T21:15:47.831Z,98968.34
2022-12-03T21:20:50.593Z,98950.84
2022-12-03T21:25:52.613Z,98953.47
2022-12-03T21:30:54.405Z,98953.44
2022-12-03T21:35:56.866Z,98951.69
2022-12-03T21:40:59.694Z,98948.19
2022-12-03T21:47:10.254Z,98932.47
2022-12-03T21:51:27.959Z,98942.97
2022-12-03T21:56:32.123Z,98935.03
2022-12-03T22:01:34.498Z,98947.25
2022-12-03T22:06:36.333Z,98930.69
2022-12-03T22:11:38.065Z,98941.06
2022-12-03T22:16:39.776Z,98935.00
2022-12-03T22:21:41.399Z,98939.38
2022-12-03T22:26:43.193Z,98949.06
2022-12-03T22:31:44.962Z,98936.78
2022-12-03T22:36:46.732Z,98938.50
2022-12-03T22:41:48.436Z,98935.03
2022-12-03T22:46:50.085Z,98922.75
2022-12-03T22:51:51.831Z,98923.66
2022-12-03T22:56:53.497Z,98910.53
2022-12-03T23:01:55.134Z,98925.44
2022-12-03T23:06:56.859Z,98915.78
2022-12-03T23:11:58.558Z,98916.63
2022-12-03T23:17:00.174Z,98908.78
2022-12-03T23:22:01.890Z,98896.56
2022-12-03T23:27:03.555Z,98910.56
2022-12-03T23:32:05.529Z,98890.53
2022-12-03T23:37:07.156Z,98886.03
2022-12-03T23:42:08.790Z,98873.88
2022-12-03T23:47:10.525Z,98872.13
2022-12-03T23:52:12.292Z,98863.38
2022-12-03T23:57:14.028Z,98871.28
